createdAt,value
2019-01-02T00:00:59.602Z,1.50
2019-01-02T00:03:28.008Z,1.63
2019-01-02T00:05:58.501Z,1.37
2019-01-02T00:08:27.265Z,1.60
2019-01-02T00:11:01.758Z,1.60
2019-01-02T00:13:32.493Z,1.40
2019-01-02T00:16:01.929Z,1.53
2019-01-02T00:18:33.040Z,1.60
2019-01-02T00:21:10.809Z,1.50
2019-01-02T00:23:42.188Z,1.50
2019-01-02T00:26:13.401Z,1.43
2019-01-02T00:28:43.769Z,1.57
2019-01-02T00:31:14.381Z,1.40
2019-01-02T00:33:44.417Z,1.70
2019-01-02T00:36:16.969Z,1.40
2019-01-02T00:38:56.953Z,1.40
2019-01-02T00:41:26.874Z,1.40
2019-01-02T00:43:58.172Z,1.33
2019-01-02T00:46:27.181Z,1.40
2019-01-02T00:48:57.323Z,1.23
2019-01-02T00:51:27.001Z,1.50
2019-01-02T00:54:09.067Z,1.40
2019-01-02T00:56:38.960Z,1.60
2019-01-02T00:59:08.639Z,1.57
2019-01-02T01:01:38.472Z,1.50
2019-01-02T01:04:08.791Z,1.50
2019-01-02T01:06:41.550Z,1.20
2019-01-02T01:09:11.615Z,1.50
2019-01-02T01:11:45.681Z,1.50
2019-01-02T01:14:14.788Z,1.23
2019-01-02T01:16:43.238Z,1.50
2019-01-02T01:19:14.673Z,1.50
2019-01-02T01:21:49.160Z,1.50
2019-01-02T01:24:19.459Z,1.23
2019-01-02T01:26:52.289Z,1.30
2019-01-02T01:29:25.398Z,1.30
2019-01-02T01:31:56.399Z,1.20
2019-01-02T01:34:28.394Z,1.23
2019-01-02T01:36:59.332Z,1.20
2019-01-02T01:39:32.869Z,1.27
2019-01-02T01:42:01.272Z,1.40
2019-01-02T01:44:29.956Z,1.40
2019-01-02T01:47:01.028Z,1.30
2019-01-02T01:49:35.184Z,1.10
2019-01-02T01:52:04.782Z,1.30
2019-01-02T01:54:36.261Z,1.47
2019-01-02T01:57:09.540Z,1.40
2019-01-02T01:59:40.026Z,1.40
2019-01-02T02:02:09.797Z,1.50
2019-01-02T02:04:41.217Z,1.40
2019-01-02T02:07:10.016Z,1.60
2019-01-02T02:09:38.786Z,1.30
2019-01-02T02:12:11.837Z,1.40
2019-01-02T02:14:41.574Z,1.50
2019-01-02T02:17:09.988Z,1.30
2019-01-02T02:19:40.173Z,1.20
2019-01-02T02:22:16.376Z,1.20
2019-01-02T02:24:48.577Z,1.30
2019-01-02T02:27:20.170Z,1.40
2019-01-02T02:29:51.306Z,1.30
2019-01-02T02:32:19.949Z,1.20
2019-01-02T02:34:51.392Z,1.20
2019-01-02T02:37:26.092Z,1.10
2019-01-02T02:39:56.165Z,1.10
2019-01-02T02:42:25.997Z,1.20
2019-01-02T02:44:58.987Z,1.27
2019-01-02T02:47:27.679Z,1.30
2019-01-02T02:49:59.172Z,1.20
2019-01-02T02:52:29.422Z,1.23
2019-01-02T02:54:59.777Z,1.33
2019-01-02T02:57:33.968Z,1.40
2019-01-02T03:00:04.281Z,1.20
2019-01-02T03:02:34.933Z,1.10
2019-01-02T03:05:04.221Z,1.37
2019-01-02T03:07:35.201Z,1.20
2019-01-02T03:10:06.590Z,1.10
2019-01-02T03:12:37.206Z,1.20
2019-01-02T03:15:10.180Z,1.23
2019-01-02T03:17:41.373Z,1.47
2019-01-02T03:20:16.188Z,1.50
2019-01-02T03:22:45.652Z,1.40
2019-01-02T03:25:16.749Z,1.40
2019-01-02T03:27:45.803Z,1.23
2019-01-02T03:30:18.784Z,1.13
2019-01-02T03:32:48.865Z,1.20
2019-01-02T03:35:17.989Z,1.10
2019-01-02T03:37:50.895Z,1.33
2019-01-02T03:40:25.361Z,1.20
2019-01-02T03:42:55.251Z,1.30
2019-01-02T03:45:25.143Z,1.20
2019-01-02T03:47:57.088Z,1.27
2019-01-02T03:50:27.421Z,1.50
2019-01-02T03:53:06.350Z,1.43
2019-01-02T03:55:35.081Z,1.40
2019-01-02T03:58:06.149Z,1.27
2019-01-02T04:00:39.003Z,1.20
2019-01-02T04:03:09.590Z,1.17
2019-01-02T04:05:39.652Z,1.10
2019-01-02T04:08:10.232Z,1.27
2019-01-02T04:10:42.999Z,1.30
2019-01-02T04:13:12.710Z,1.20
2019-01-02T04:15:41.712Z,1.30
2019-01-02T04:18:10.119Z,1.30
2019-01-02T04:20:39.658Z,1.30
2019-01-02T04:23:11.429Z,1.47
2019-01-02T04:25:41.556Z,1.37
2019-01-02T04:28:12.715Z,1.30
2019-01-02T04:30:42.094Z,1.17
2019-01-02T04:33:15.289Z,1.30
2019-01-02T04:35:45.710Z,1.33
2019-01-02T04:38:14.477Z,1.40
2019-01-02T04:40:43.985Z,1.17
2019-01-02T04:43:12.584Z,1.10
2019-01-02T04:45:42.638Z,1.40
2019-01-02T04:48:11.337Z,1.27
2019-01-02T04:50:39.753Z,1.30
2019-01-02T04:53:10.106Z,1.10
2019-01-02T04:55:44.326Z,1.60
2019-01-02T04:58:17.549Z,1.40
2019-01-02T05:00:45.968Z,1.30
2019-01-02T05:03:16.272Z,1.40
2019-01-02T05:05:44.698Z,1.30
2019-01-02T05:08:14.702Z,1.50
2019-01-02T05:10:47.962Z,1.20
2019-01-02T05:13:18.429Z,1.43
2019-01-02T05:15:48.280Z,1.30
2019-01-02T05:18:16.957Z,1.10
2019-01-02T05:20:47.442Z,1.03
2019-01-02T05:23:17.124Z,1.30
2019-01-02T05:25:46.868Z,1.40
2019-01-02T05:28:15.544Z,1.43
2019-01-02T05:30:46.076Z,1.27
2019-01-02T05:33:20.112Z,1.47
2019-01-02T05:35:54.555Z,1.30
2019-01-02T05:38:30.239Z,1.60
2019-01-02T05:41:00.313Z,1.40
2019-01-02T05:43:30.711Z,1.40
2019-01-02T05:46:03.390Z,1.27
2019-01-02T05:48:35.196Z,1.10
2019-01-02T05:51:10.095Z,1.20
2019-01-02T05:53:38.542Z,1.80
2019-01-02T05:56:06.968Z,1.40
2019-01-02T05:58:35.392Z,1.30
2019-01-02T06:01:07.061Z,1.40
2019-01-02T06:03:36.698Z,1.40
2019-01-02T06:06:05.088Z,1.53
2019-01-02T06:08:35.641Z,1.47
2019-01-02T06:11:04.300Z,1.23
2019-01-02T06:13:37.582Z,1.20
2019-01-02T06:16:06.390Z,1.50
2019-01-02T06:18:36.686Z,1.47
2019-01-02T06:21:07.096Z,1.20
2019-01-02T06:23:37.843Z,1.40
2019-01-02T06:26:08.779Z,1.30
2019-01-02T06:28:39.712Z,1.73
2019-01-02T06:31:08.493Z,1.30
2019-01-02T06:33:39.065Z,1.57
2019-01-02T06:36:08.048Z,1.17
2019-01-02T06:38:40.386Z,1.53
2019-01-02T06:41:11.748Z,1.20
2019-01-02T06:43:40.183Z,1.30
2019-01-02T06:46:09.264Z,1.50
2019-01-02T06:48:41.071Z,1.30
2019-01-02T06:51:11.254Z,1.10
2019-01-02T06:53:44.046Z,1.40
2019-01-02T06:56:12.673Z,1.50
2019-01-02T06:58:44.351Z,1.40
2019-01-02T07:01:12.752Z,1.67
2019-01-02T07:03:44.347Z,1.53
2019-01-02T07:06:12.775Z,1.57
2019-01-02T07:08:44.040Z,1.47
2019-01-02T07:11:12.734Z,2.30
2019-01-02T07:13:43.429Z,1.77
2019-01-02T07:16:12.104Z,1.47
2019-01-02T07:18:43.823Z,1.80
2019-01-02T07:21:14.196Z,1.90
2019-01-02T07:23:42.895Z,1.60
2019-01-02T07:26:12.968Z,1.70
2019-01-02T07:28:45.624Z,1.60
2019-01-02T07:31:15.695Z,1.87
2019-01-02T07:33:51.825Z,1.60
2019-01-02T07:36:36.170Z,1.90
2019-01-02T07:39:11.893Z,1.83
2019-01-02T07:42:10.087Z,1.40
2019-01-02T07:44:58.326Z,1.63
2019-01-02T07:47:50.960Z,2.20
2019-01-02T07:50:33.080Z,2.57
2019-01-02T07:53:27.641Z,2.23
2019-01-02T07:56:18.799Z,2.27
2019-01-02T07:59:10.693Z,2.43
2019-01-02T08:02:03.493Z,2.40
2019-01-02T08:05:01.061Z,2.33
2019-01-02T08:07:57.837Z,2.50
2019-01-02T08:10:49.126Z,2.47
2019-01-02T08:13:33.344Z,2.53
2019-01-02T08:16:10.907Z,1.90
2019-01-02T08:19:00.600Z,2.50
2019-01-02T08:24:47.062Z,2.37
2019-01-02T08:27:43.044Z,2.20
2019-01-02T08:30:25.146Z,2.17
2019-01-02T08:33:12.843Z,2.23
2019-01-02T08:35:54.424Z,2.43
2019-01-02T08:38:51.222Z,2.70
2019-01-02T08:41:23.144Z,2.10
2019-01-02T08:43:58.730Z,2.27
2019-01-02T08:46:39.863Z,1.93
2019-01-02T08:49:17.348Z,2.30
2019-01-02T08:52:08.298Z,1.83
2019-01-02T08:54:45.185Z,1.83
2019-01-02T08:57:31.771Z,1.97
2019-01-02T09:00:25.974Z,2.00
2019-01-02T09:03:08.724Z,2.10
2019-01-02T09:05:55.281Z,1.97
2019-01-02T09:08:43.730Z,2.00
2019-01-02T09:11:28.801Z,2.00
2019-01-02T09:14:20.026Z,2.23
2019-01-02T09:17:20.982Z,2.13
2019-01-02T09:26:28.688Z,1.77
2019-01-02T09:29:25.204Z,1.87
2019-01-02T09:36:05.702Z,1.97
2019-01-02T09:49:19.101Z,1.90
2019-01-02T09:52:25.179Z,2.03
2019-01-02T09:55:21.398Z,1.90
2019-01-02T09:58:22.000Z,1.70
2019-01-02T10:00:56.229Z,2.07
2019-01-02T10:03:44.574Z,1.60
2019-01-02T10:06:18.737Z,1.93
2019-01-02T10:08:51.678Z,2.00
2019-01-02T10:11:26.355Z,1.80
2019-01-02T10:14:04.987Z,2.00
2019-01-02T10:16:57.920Z,2.00
2019-01-02T10:20:05.180Z,2.00
2019-01-02T10:22:51.223Z,1.93
2019-01-02T10:25:39.725Z,2.03
2019-01-02T10:28:35.606Z,1.70
2019-01-02T10:37:19.586Z,2.07
2019-01-02T10:40:11.632Z,1.70
2019-01-02T10:42:59.870Z,1.87
2019-01-02T10:45:57.248Z,1.73
2019-01-02T10:48:45.182Z,1.90
2019-01-02T10:51:30.291Z,2.20
2019-01-02T10:54:03.103Z,1.83
2019-01-02T10:56:41.970Z,2.20
2019-01-02T10:59:42.138Z,2.10
2019-01-02T11:02:43.279Z,1.53
2019-01-02T11:05:53.429Z,1.80
2019-01-02T11:08:35.191Z,1.80
2019-01-02T11:11:41.996Z,2.07
2019-01-02T11:14:59.215Z,1.87
2019-01-02T11:17:54.516Z,1.83
2019-01-02T11:21:03.918Z,1.70
2019-01-02T11:23:56.593Z,2.17
2019-01-02T11:37:31.697Z,1.90
2019-01-02T11:40:23.232Z,2.00
2019-01-02T11:43:04.786Z,2.50
2019-01-02T11:45:36.318Z,1.97
2019-01-02T11:48:17.477Z,1.57
2019-01-02T11:50:45.894Z,1.80
2019-01-02T11:53:22.955Z,2.07
2019-01-02T12:05:19.447Z,2.10
2019-01-02T12:07:58.448Z,1.90
2019-01-02T12:14:12.591Z,2.40
2019-01-02T12:23:11.554Z,2.17
2019-01-02T12:25:56.153Z,2.00
2019-01-02T12:28:33.590Z,1.77
2019-01-02T12:31:04.908Z,2.03
2019-01-02T12:33:39.168Z,1.90
2019-01-02T12:36:09.154Z,2.10
2019-01-02T12:38:40.369Z,2.10
2019-01-02T12:41:13.005Z,1.80
2019-01-02T12:43:42.940Z,1.70
2019-01-02T12:46:13.638Z,1.90
2019-01-02T12:48:43.808Z,1.70
2019-01-02T12:51:13.812Z,2.20
2019-01-02T12:53:44.211Z,1.67
2019-01-02T12:56:13.979Z,1.50
2019-01-02T12:58:47.242Z,1.90
2019-01-02T13:01:21.785Z,1.80
2019-01-02T13:17:36.262Z,1.80
2019-01-02T13:23:47.657Z,1.90
2019-01-02T13:26:49.010Z,1.90
2019-01-02T13:29:36.391Z,1.87
2019-01-02T13:32:24.177Z,2.00
2019-01-02T13:34:56.174Z,1.83
2019-01-02T13:37:45.708Z,1.67
2019-01-02T13:56:25.478Z,2.23
2019-01-02T14:02:31.843Z,1.90
2019-01-02T14:05:16.982Z,1.70
2019-01-02T14:18:07.106Z,1.50
2019-01-02T14:20:37.522Z,1.80
2019-01-02T14:23:08.825Z,1.87
2019-01-02T14:25:39.544Z,2.00
2019-01-02T14:31:27.058Z,1.90
2019-01-02T14:37:26.262Z,1.77
2019-01-02T14:43:11.757Z,1.67
2019-01-02T14:45:49.360Z,2.13
2019-01-02T14:48:25.746Z,1.50
2019-01-02T14:51:09.672Z,1.53
2019-01-02T14:59:32.579Z,1.67
2019-01-02T15:02:04.427Z,1.70
2019-01-02T15:04:35.277Z,1.90
2019-01-02T15:10:13.346Z,2.07
2019-01-02T15:16:27.509Z,1.63
2019-01-02T15:18:57.881Z,1.50
2019-01-02T15:21:26.302Z,1.70
2019-01-02T15:24:08.960Z,1.57
2019-01-02T15:27:07.794Z,1.50
2019-01-02T15:29:51.351Z,1.77
2019-01-02T15:32:37.766Z,1.80
2019-01-02T15:38:58.808Z,1.47
2019-01-02T15:44:40.481Z,1.80
2019-01-02T16:00:07.280Z,1.30
2019-01-02T16:08:46.832Z,1.60
2019-01-02T16:11:22.303Z,1.50
2019-01-02T16:13:55.314Z,1.50
2019-01-02T16:19:41.250Z,1.70
2019-01-02T16:22:26.893Z,1.73
2019-01-02T16:28:10.102Z,1.70
2019-01-02T16:36:13.644Z,1.60
2019-01-02T16:37:10.563Z,1.60
2019-01-02T16:43:02.525Z,1.50
2019-01-02T17:00:37.450Z,1.40
2019-01-02T17:03:06.928Z,1.70
2019-01-02T17:05:39.470Z,1.60
2019-01-02T17:20:14.532Z,1.60
2019-01-02T17:22:48.216Z,1.50
2019-01-02T17:25:18.150Z,1.70
2019-01-02T17:27:47.746Z,1.67
2019-01-02T17:30:26.666Z,1.53
2019-01-02T17:39:46.864Z,1.53
2019-01-02T17:45:15.505Z,1.57
2019-01-02T17:47:46.146Z,1.30
2019-01-02T17:50:26.032Z,1.87
2019-01-02T17:53:00.074Z,1.37
2019-01-02T18:07:19.914Z,1.30
2019-01-02T18:09:55.825Z,1.40
2019-01-02T18:15:43.981Z,1.50
2019-01-02T18:18:38.735Z,1.50
2019-01-02T18:21:12.150Z,1.43
2019-01-02T18:26:56.588Z,1.30
2019-01-02T18:36:00.085Z,1.30
2019-01-02T18:41:30.920Z,1.67
2019-01-02T18:44:54.016Z,1.50
2019-01-02T18:46:40.513Z,1.53
2019-01-02T18:51:59.228Z,1.30
2019-01-02T18:54:29.391Z,1.43
2019-01-02T18:56:59.911Z,1.40
2019-01-02T19:00:06.238Z,1.20
2019-01-02T19:11:32.734Z,1.63
2019-01-02T19:14:02.630Z,1.40
2019-01-02T19:16:35.224Z,1.43
2019-01-02T19:22:34.545Z,1.50
2019-01-02T19:25:22.031Z,1.70
2019-01-02T19:28:03.721Z,1.50
2019-01-02T19:37:11.378Z,1.87
2019-01-02T19:39:57.594Z,1.43
2019-01-02T19:42:34.109Z,1.40
2019-01-02T19:48:03.865Z,1.60
2019-01-02T19:50:45.234Z,1.33
2019-01-02T19:53:18.473Z,1.83
2019-01-02T19:56:11.458Z,2.00
2019-01-02T20:01:27.718Z,1.90
2019-01-02T20:03:58.543Z,1.60
2019-01-02T20:09:50.641Z,1.53
2019-01-02T20:15:17.552Z,1.70
2019-01-02T20:21:35.193Z,1.37
2019-01-02T20:27:35.397Z,1.60
2019-01-02T20:30:12.087Z,1.50
2019-01-02T20:32:45.748Z,1.20
2019-01-02T20:35:14.518Z,1.20
2019-01-02T20:39:01.505Z,1.70
2019-01-02T20:41:03.368Z,1.20
2019-01-02T20:43:33.026Z,1.53
2019-01-02T20:46:09.809Z,1.63
2019-01-02T20:48:43.473Z,1.40
2019-01-02T20:54:16.880Z,1.37
2019-01-02T20:56:47.306Z,1.70
2019-01-02T20:59:31.416Z,1.60
2019-01-02T21:02:05.637Z,1.47
2019-01-02T21:04:39.669Z,1.70
2019-01-02T21:07:09.548Z,1.63
2019-01-02T21:09:39.616Z,1.77
2019-01-02T21:12:09.671Z,2.00
2019-01-02T21:14:45.508Z,2.03
2019-01-02T21:17:15.562Z,1.30
2019-01-02T21:20:04.045Z,1.50
2019-01-02T21:22:32.487Z,1.53
2019-01-02T21:25:01.017Z,1.93
2019-01-02T21:27:32.168Z,2.10
2019-01-02T21:30:09.580Z,1.90
2019-01-02T21:32:39.559Z,1.50
2019-01-02T21:35:13.411Z,1.30
2019-01-02T21:47:02.464Z,2.00
2019-01-02T21:49:31.532Z,1.33
2019-01-02T21:52:08.190Z,1.80
2019-01-02T21:54:38.350Z,1.67
2019-01-02T21:57:08.991Z,1.57
2019-01-02T21:59:41.074Z,1.60
2019-01-02T22:02:13.385Z,1.60
2019-01-02T22:04:44.866Z,1.77
2019-01-02T22:07:15.266Z,1.50
2019-01-02T22:09:46.888Z,1.93
2019-01-02T22:12:20.361Z,1.47
2019-01-02T22:14:52.108Z,1.53
2019-01-02T22:17:28.818Z,1.50
2019-01-02T22:20:00.177Z,1.40
2019-01-02T22:22:30.045Z,1.53
2019-01-02T22:24:59.742Z,1.67
2019-01-02T22:27:32.127Z,1.60
2019-01-02T22:30:02.634Z,1.50
2019-01-02T22:32:34.544Z,1.23
2019-01-02T22:35:03.256Z,1.57
2019-01-02T22:38:02.707Z,1.30
2019-01-02T22:40:31.147Z,1.30
2019-01-02T22:43:03.082Z,1.50
2019-01-02T22:45:31.806Z,1.40
2019-01-02T22:48:02.415Z,1.70
2019-01-02T22:50:32.453Z,1.60
2019-01-02T22:53:03.769Z,1.70
2019-01-02T22:55:36.291Z,1.30
2019-01-02T22:58:06.708Z,1.40
2019-01-02T23:00:42.607Z,1.57
2019-01-02T23:03:19.183Z,1.10
2019-01-02T23:05:55.462Z,1.27
2019-01-02T23:08:33.568Z,1.40
2019-01-02T23:11:08.811Z,1.33
2019-01-02T23:13:51.783Z,1.40
2019-01-02T23:16:24.776Z,1.37
2019-01-02T23:19:39.014Z,1.47
2019-01-02T23:22:25.937Z,1.40
2019-01-02T23:25:03.728Z,1.53
2019-01-02T23:27:51.864Z,1.60
2019-01-02T23:30:31.448Z,1.50
2019-01-02T23:33:19.409Z,1.70
2019-01-02T23:36:08.126Z,1.23
2019-01-02T23:38:42.757Z,1.23
2019-01-02T23:41:33.634Z,1.40
2019-01-02T23:44:09.927Z,1.50
2019-01-02T23:46:45.924Z,1.60
2019-01-02T23:49:26.839Z,1.50
2019-01-02T23:52:00.422Z,1.53
2019-01-02T23:54:36.077Z,1.30
2019-01-02T23:57:23.972Z,1.73
